Terminal Aerodrome Forecast
Issued by NWS Wakefield, VA

Home | Current Version | Previous Version | Text Only | Print | Product List | Glossary On
Versions: 1 2 3 4 5 6 7 8 9 10 11 12 13 14 15 16
872
FTUS41 KAKQ 112320
TAFSBY
TAF
KSBY 112320Z 1200/1224 17004KT P6SM SKC
     FM121100 21009KT P6SM BKN250
     FM121700 25013G20KT P6SM BKN090
     FM122200 29016G23KT P6SM BKN050=

USA.gov is the U.S. government's official web portal to all federal, state and local government web resources and services.